createdAt,value
2023-03-06T00:54:53.585Z,31.06
2023-03-06T00:55:54.545Z,30.25
2023-03-06T00:56:54.538Z,30.13
2023-03-06T00:57:54.525Z,30.04
2023-03-06T00:58:54.522Z,30.03
2023-03-06T00:59:54.512Z,29.99
2023-03-06T01:00:54.519Z,29.99
2023-03-06T01:01:54.629Z,29.94
2023-03-06T01:02:54.478Z,29.93
2023-03-06T01:03:54.476Z,29.93
2023-03-06T01:04:54.466Z,29.88
2023-03-06T01:05:54.462Z,29.87
2023-03-06T01:06:54.442Z,29.85
2023-03-06T01:07:54.439Z,29.87
2023-03-06T01:08:54.423Z,29.89
2023-03-06T01:09:54.413Z,29.83
2023-03-06T01:10:54.445Z,29.83
2023-03-06T01:11:54.394Z,29.83
2023-03-06T01:12:54.817Z,29.78
2023-03-06T01:13:54.393Z,29.78
2023-03-06T01:14:54.371Z,29.79
2023-03-06T01:15:54.385Z,29.82
2023-03-06T01:16:54.361Z,29.81
2023-03-06T01:17:54.341Z,29.78
2023-03-06T01:18:54.337Z,29.81
2023-03-06T01:19:54.327Z,29.76
2023-03-06T01:20:54.312Z,29.76
2023-03-06T01:21:54.305Z,29.79
2023-03-06T01:22:54.299Z,29.72
2023-03-06T01:23:54.288Z,29.73
2023-03-06T01:24:54.277Z,29.70
2023-03-06T01:25:54.270Z,29.73
2023-03-06T01:26:54.279Z,29.74
2023-03-06T01:27:54.260Z,29.72
2023-03-06T01:28:54.240Z,29.71
2023-03-06T01:29:54.232Z,29.71
2023-03-06T01:30:54.218Z,29.69
2023-03-06T01:31:54.246Z,29.69
2023-03-06T01:32:54.203Z,29.60
2023-03-06T01:33:54.190Z,29.54
2023-03-06T01:34:54.180Z,29.50
2023-03-06T01:35:54.245Z,29.49
2023-03-06T01:36:54.176Z,29.53
2023-03-06T01:37:54.154Z,29.55
2023-03-06T01:38:54.151Z,29.55
2023-03-06T01:39:54.138Z,29.54
2023-03-06T01:40:54.130Z,29.51
2023-03-06T01:41:54.127Z,29.47
2023-03-06T01:42:54.137Z,29.52
2023-03-06T01:43:54.111Z,29.50
2023-03-06T01:44:54.091Z,29.50
2023-03-06T01:45:54.125Z,29.49
2023-03-06T01:46:54.078Z,29.48
2023-03-06T01:47:54.065Z,29.48
2023-03-06T01:48:54.053Z,29.46
2023-03-06T01:49:54.049Z,29.50
2023-03-06T01:50:54.049Z,29.49
2023-03-06T01:51:54.036Z,29.43
2023-03-06T01:52:54.021Z,29.40
2023-03-06T01:53:54.008Z,29.34
2023-03-06T01:54:54.006Z,29.36
2023-03-06T01:55:53.994Z,29.39
2023-03-06T01:56:53.988Z,29.30
2023-03-06T01:57:53.987Z,29.28
2023-03-06T01:58:54.004Z,29.21
2023-03-06T01:59:53.959Z,29.18
2023-03-06T02:00:53.997Z,29.25
2023-03-06T02:01:53.946Z,29.20
2023-03-06T02:02:53.930Z,29.08
2023-03-06T02:03:53.927Z,29.11
2023-03-06T02:04:53.915Z,29.14
2023-03-06T02:05:53.906Z,29.05
2023-03-06T02:06:53.902Z,29.05
2023-03-06T02:07:53.887Z,29.07
2023-03-06T02:08:53.890Z,29.03
2023-03-06T02:09:53.868Z,29.08
2023-03-06T02:10:53.862Z,28.98
2023-03-06T02:11:53.853Z,29.00
2023-03-06T02:12:53.842Z,28.93
2023-03-06T02:13:53.840Z,28.85
2023-03-06T02:14:54.103Z,28.79
2023-03-06T02:15:53.818Z,28.87
2023-03-06T02:16:53.829Z,28.82
2023-03-06T02:17:53.797Z,28.83
2023-03-06T02:18:53.801Z,28.87
2023-03-06T02:19:53.789Z,28.74
2023-03-06T02:20:53.777Z,28.87
2023-03-06T02:21:53.765Z,28.79
2023-03-06T02:22:53.754Z,28.78
2023-03-06T02:23:53.751Z,28.76
2023-03-06T02:24:53.737Z,28.74
2023-03-06T02:25:53.729Z,28.69
2023-03-06T02:26:53.732Z,28.67
2023-03-06T02:27:53.712Z,28.66
2023-03-06T02:28:53.700Z,28.65
2023-03-06T02:29:53.688Z,28.50
2023-03-06T02:30:53.756Z,28.64
2023-03-06T02:31:53.675Z,28.61
2023-03-06T02:32:53.662Z,28.54
2023-03-06T02:33:53.651Z,28.56
2023-03-06T02:34:54.287Z,28.60
2023-03-06T02:35:53.686Z,28.52
2023-03-06T02:36:53.630Z,28.53
2023-03-06T02:37:53.623Z,28.54
2023-03-06T02:38:53.615Z,28.57
2023-03-06T02:39:53.600Z,28.60
2023-03-06T02:40:53.596Z,28.48
2023-03-06T02:41:53.581Z,28.57
2023-03-06T02:42:53.585Z,28.56
2023-03-06T02:43:53.567Z,28.59
2023-03-06T02:44:53.575Z,28.46
2023-03-06T02:45:53.602Z,28.48
2023-03-06T02:46:53.559Z,28.50
2023-03-06T02:47:53.529Z,28.46
2023-03-06T02:48:53.519Z,28.39
2023-03-06T02:49:53.522Z,28.36
2023-03-06T02:50:53.496Z,28.37
2023-03-06T02:51:53.522Z,28.34
2023-03-06T02:52:53.481Z,28.42
2023-03-06T02:53:53.494Z,28.43
2023-03-06T02:54:53.471Z,28.46
2023-03-06T02:55:53.478Z,28.51
2023-03-06T02:56:53.437Z,28.50
2023-03-06T02:57:53.436Z,28.51
2023-03-06T02:58:53.423Z,28.43
2023-03-06T02:59:53.423Z,28.37
2023-03-06T03:00:53.408Z,28.28
2023-03-06T03:01:53.436Z,28.19
2023-03-06T03:02:53.410Z,28.19
2023-03-06T03:03:53.383Z,28.34
2023-03-06T03:04:53.405Z,28.40
2023-03-06T03:05:53.362Z,28.41
2023-03-06T03:06:53.349Z,28.39
2023-03-06T03:07:53.349Z,28.32
2023-03-06T03:08:53.333Z,28.26
2023-03-06T03:09:53.321Z,28.18
2023-03-06T03:10:53.315Z,28.28
2023-03-06T03:11:53.304Z,28.28
2023-03-06T03:12:53.300Z,28.26
2023-03-06T03:13:53.289Z,28.36
2023-03-06T03:14:53.277Z,28.32
2023-03-06T03:15:53.287Z,28.33
2023-03-06T03:16:53.259Z,28.25
2023-03-06T03:17:53.254Z,28.22
2023-03-06T03:18:53.265Z,28.32
2023-03-06T03:19:53.235Z,28.20
2023-03-06T03:20:53.236Z,28.22
2023-03-06T03:21:53.216Z,28.20
2023-03-06T03:22:53.220Z,28.25
2023-03-06T03:23:53.199Z,28.19
2023-03-06T03:24:53.272Z,28.19
2023-03-06T03:25:53.182Z,28.19
2023-03-06T03:26:53.173Z,28.17
2023-03-06T03:27:53.170Z,28.05
2023-03-06T03:28:53.155Z,28.11
2023-03-06T03:29:53.150Z,28.09
2023-03-06T03:30:53.221Z,28.23
2023-03-06T03:31:53.134Z,28.20
2023-03-06T03:32:53.122Z,28.19
2023-03-06T03:33:53.112Z,28.18
2023-03-06T03:34:53.131Z,28.16
2023-03-06T03:35:53.107Z,28.11
2023-03-06T03:36:53.087Z,28.02
2023-03-06T03:37:53.094Z,28.04
2023-03-06T03:38:53.067Z,28.12
2023-03-06T03:39:53.059Z,28.11
2023-03-06T03:40:53.048Z,28.15
2023-03-06T03:41:53.044Z,28.13
2023-03-06T03:42:53.032Z,28.06
2023-03-06T03:43:53.021Z,28.05
2023-03-06T03:44:53.012Z,28.06
2023-03-06T03:45:53.008Z,28.15
2023-03-06T03:46:52.998Z,28.17
2023-03-06T03:47:52.993Z,28.10
2023-03-06T03:48:52.981Z,28.09
2023-03-06T03:49:52.974Z,28.06
2023-03-06T03:50:53.000Z,28.12
2023-03-06T03:51:52.954Z,28.06
2023-03-06T03:52:52.949Z,28.09
2023-03-06T03:53:52.930Z,28.12
2023-03-06T03:54:52.927Z,28.11
2023-03-06T03:55:52.914Z,28.19
2023-03-06T03:56:52.907Z,28.26
2023-03-06T03:57:52.894Z,28.26
2023-03-06T03:58:52.896Z,28.18
2023-03-06T03:59:52.880Z,28.20
2023-03-06T04:00:52.872Z,28.27
2023-03-06T04:01:53.012Z,28.28
2023-03-06T04:02:52.857Z,28.31
2023-03-06T04:03:52.836Z,28.32
2023-03-06T04:04:52.864Z,28.29
2023-03-06T04:05:52.822Z,28.28
2023-03-06T04:06:52.848Z,28.26
2023-03-06T04:07:52.806Z,28.27
2023-03-06T04:08:52.793Z,28.31
2023-03-06T04:09:52.783Z,28.36
2023-03-06T04:10:52.779Z,28.30
2023-03-06T04:11:52.771Z,28.41
2023-03-06T04:12:52.785Z,28.33
2023-03-06T04:13:52.759Z,28.28
2023-03-06T04:14:52.744Z,28.39
2023-03-06T04:15:52.780Z,28.39
2023-03-06T04:16:52.723Z,28.36
2023-03-06T04:17:52.711Z,28.33
2023-03-06T04:18:52.705Z,28.30
2023-03-06T04:19:52.702Z,28.31
2023-03-06T04:20:52.700Z,28.31
2023-03-06T04:21:52.676Z,28.28
2023-03-06T04:22:52.692Z,28.30
2023-03-06T04:23:52.662Z,28.28
2023-03-06T04:24:52.650Z,28.29
2023-03-06T04:25:52.648Z,28.29
2023-03-06T04:26:52.633Z,28.28
2023-03-06T04:27:52.624Z,28.28
2023-03-06T04:28:52.620Z,28.28
2023-03-06T04:29:52.609Z,28.25
2023-03-06T04:30:52.610Z,28.26
2023-03-06T04:31:52.588Z,28.24
2023-03-06T04:32:52.578Z,28.26
2023-03-06T04:33:52.576Z,28.23
2023-03-06T04:34:52.566Z,28.24
2023-03-06T04:35:52.589Z,28.25
2023-03-06T04:36:52.544Z,28.26
2023-03-06T04:37:52.543Z,28.28
2023-03-06T04:38:52.608Z,28.27
2023-03-06T04:39:52.518Z,28.27
2023-03-06T04:40:52.508Z,28.31
2023-03-06T04:41:52.507Z,28.30
2023-03-06T04:42:52.494Z,28.30
2023-03-06T04:43:52.490Z,28.33
2023-03-06T04:44:52.474Z,28.34
2023-03-06T04:45:52.575Z,28.33
2023-03-06T04:46:52.457Z,28.37
2023-03-06T04:47:52.449Z,28.37
2023-03-06T04:48:52.443Z,28.38
2023-03-06T04:49:52.431Z,28.40
2023-03-06T04:50:52.423Z,28.45
2023-03-06T04:51:52.417Z,28.42
2023-03-06T04:52:52.396Z,28.41
2023-03-06T04:53:52.415Z,28.42
2023-03-06T04:54:52.411Z,28.45
2023-03-06T04:55:52.377Z,28.43
2023-03-06T04:56:52.367Z,28.42
2023-03-06T04:57:52.356Z,28.45
2023-03-06T04:58:52.356Z,28.45
2023-03-06T04:59:52.344Z,28.48
2023-03-06T05:00:52.406Z,28.46
2023-03-06T05:01:52.371Z,28.44
2023-03-06T05:02:52.315Z,28.47
2023-03-06T05:03:52.304Z,28.47
2023-03-06T05:04:52.300Z,28.48
2023-03-06T05:05:52.281Z,28.46
2023-03-06T05:06:52.276Z,28.46
2023-03-06T05:07:52.271Z,28.45
2023-03-06T05:08:52.253Z,28.48
2023-03-06T05:09:52.249Z,28.44
2023-03-06T05:10:52.262Z,28.46
2023-03-06T05:11:52.227Z,28.47
2023-03-06T05:12:52.220Z,28.46
2023-03-06T05:13:52.210Z,28.49
2023-03-06T05:14:52.201Z,28.46
2023-03-06T05:15:52.191Z,28.45
2023-03-06T05:16:52.190Z,28.45
2023-03-06T05:17:52.837Z,28.47
2023-03-06T05:18:52.175Z,28.50
2023-03-06T05:19:52.155Z,28.50
2023-03-06T05:20:52.147Z,28.51
2023-03-06T05:21:52.134Z,28.53
2023-03-06T05:22:52.129Z,28.58
2023-03-06T05:23:52.122Z,28.54
2023-03-06T05:24:52.109Z,28.56
2023-03-06T05:25:52.102Z,28.59
2023-03-06T05:26:52.117Z,28.58
2023-03-06T05:27:52.079Z,28.60
2023-03-06T05:28:52.083Z,28.58
2023-03-06T05:29:52.065Z,28.57
2023-03-06T05:30:52.069Z,28.60
2023-03-06T05:31:52.127Z,28.59
2023-03-06T05:32:52.064Z,28.60
2023-03-06T05:33:52.028Z,28.62
2023-03-06T05:34:52.019Z,28.60
2023-03-06T05:35:52.060Z,28.64
2023-03-06T05:36:52.049Z,28.64
2023-03-06T05:37:51.998Z,28.64
2023-03-06T05:38:51.995Z,28.66
2023-03-06T05:39:51.993Z,28.64
2023-03-06T05:40:51.985Z,28.61
2023-03-06T05:41:51.969Z,28.63
2023-03-06T05:42:51.987Z,28.65
2023-03-06T05:43:51.943Z,28.59
2023-03-06T05:44:51.958Z,28.61
2023-03-06T05:45:51.993Z,28.62
2023-03-06T05:46:51.920Z,28.61
2023-03-06T05:47:51.923Z,28.62
2023-03-06T05:48:51.902Z,28.65
2023-03-06T05:49:51.900Z,28.65
2023-03-06T05:50:51.883Z,28.69
2023-03-06T05:51:51.872Z,28.67
2023-03-06T05:52:51.861Z,28.61
2023-03-06T05:53:51.855Z,28.63
2023-03-06T05:54:51.844Z,28.64
2023-03-06T05:55:51.848Z,28.65
2023-03-06T05:56:51.827Z,28.63
2023-03-06T05:57:51.815Z,28.66
2023-03-06T05:58:51.856Z,28.66
2023-03-06T05:59:51.829Z,28.64
2023-03-06T06:00:51.790Z,28.63
2023-03-06T06:01:51.777Z,28.65
2023-03-06T06:02:51.833Z,28.64
2023-03-06T06:03:51.886Z,28.64
2023-03-06T06:04:51.751Z,28.63
2023-03-06T06:05:51.800Z,28.63
2023-03-06T06:06:51.732Z,28.65
2023-03-06T06:07:51.723Z,28.65
2023-03-06T06:08:51.713Z,28.65
2023-03-06T06:09:51.838Z,28.53
2023-03-06T06:10:53.464Z,28.47
2023-03-06T06:11:51.691Z,28.32
2023-03-06T06:12:51.690Z,28.15
2023-03-06T06:13:51.674Z,27.97
2023-03-06T06:14:51.684Z,27.91
2023-03-06T06:15:51.722Z,27.78
2023-03-06T06:16:51.651Z,27.75
2023-03-06T06:17:51.635Z,27.75
2023-03-06T06:18:51.625Z,27.73
2023-03-06T06:19:51.616Z,27.70
2023-03-06T06:20:51.606Z,27.82
2023-03-06T06:21:51.596Z,28.10
2023-03-06T06:22:51.834Z,28.31
2023-03-06T06:23:51.585Z,28.47
2023-03-06T06:24:51.565Z,28.53
2023-03-06T06:25:51.560Z,28.66
2023-03-06T06:26:51.550Z,28.74
2023-03-06T06:27:51.547Z,28.83
2023-03-06T06:28:51.847Z,28.90
2023-03-06T06:29:51.522Z,28.90
2023-03-06T06:30:51.566Z,28.91
2023-03-06T06:31:51.532Z,29.02
2023-03-06T06:32:51.517Z,29.06
2023-03-06T06:33:51.488Z,29.15
2023-03-06T06:34:51.481Z,29.15
2023-03-06T06:35:51.523Z,29.27
2023-03-06T06:36:53.398Z,29.33
2023-03-06T06:37:51.449Z,29.35
2023-03-06T06:38:51.448Z,29.48
2023-03-06T06:39:51.435Z,29.51
2023-03-06T06:41:25.556Z,29.58
2023-03-06T06:42:05.531Z,29.71
2023-03-06T06:42:51.411Z,29.73
2023-03-06T06:43:51.849Z,29.75
2023-03-06T06:44:51.423Z,29.83
2023-03-06T06:45:52.186Z,29.89
2023-03-06T06:47:51.649Z,30.07
2023-03-06T06:48:51.569Z,30.14
2023-03-06T06:50:51.565Z,30.30
2023-03-06T06:51:51.849Z,30.59
2023-03-06T06:52:51.591Z,30.67
2023-03-06T06:53:51.550Z,30.80
2023-03-06T06:54:51.849Z,31.54
2023-03-06T06:56:51.497Z,31.42
2023-03-06T06:57:51.686Z,31.27
2023-03-06T06:58:51.488Z,31.07
2023-03-06T06:59:53.899Z,30.90
2023-03-06T07:02:51.489Z,30.82
2023-03-06T07:03:51.444Z,30.79
2023-03-06T07:05:04.772Z,30.72
2023-03-06T07:05:51.525Z,30.71
2023-03-06T07:06:51.888Z,30.55
2023-03-06T07:07:52.401Z,30.54
2023-03-06T07:08:51.389Z,30.49
2023-03-06T07:09:51.380Z,30.35
2023-03-06T07:10:51.437Z,30.32
2023-03-06T07:12:07.451Z,30.25
2023-03-06T07:12:51.357Z,30.33
2023-03-06T07:14:51.351Z,30.31
2023-03-06T07:15:51.391Z,30.13
2023-03-06T07:16:51.358Z,30.06
2023-03-06T07:17:51.356Z,30.06
2023-03-06T07:18:51.350Z,30.04
2023-03-06T07:19:51.302Z,30.04
2023-03-06T07:20:51.364Z,29.97
2023-03-06T07:21:51.281Z,29.96
2023-03-06T07:22:52.028Z,29.93
2023-03-06T07:23:51.254Z,29.87
2023-03-06T07:24:51.249Z,29.86
2023-03-06T07:25:51.362Z,29.80
2023-03-06T07:26:51.250Z,29.83
2023-03-06T07:27:53.867Z,29.84
2023-03-06T07:28:52.934Z,29.79
2023-03-06T07:29:51.201Z,29.80
2023-03-06T07:30:51.323Z,29.79
2023-03-06T07:31:51.185Z,29.77
2023-03-06T07:32:51.185Z,29.65
2023-03-06T07:33:51.169Z,29.62
2023-03-06T07:34:51.181Z,29.57
2023-03-06T07:35:51.173Z,29.60
2023-03-06T07:36:51.146Z,29.62
2023-03-06T07:37:51.372Z,29.62
2023-03-06T07:38:51.121Z,29.60
2023-03-06T07:39:51.362Z,29.56
2023-03-06T07:40:51.514Z,29.56
2023-03-06T07:41:51.094Z,29.54
2023-03-06T07:42:51.086Z,29.57
2023-03-06T07:43:51.093Z,29.61
2023-03-06T07:44:51.373Z,29.53
2023-03-06T07:45:51.065Z,29.63
2023-03-06T07:46:51.085Z,29.72
2023-03-06T07:47:51.398Z,29.80
2023-03-06T07:48:51.588Z,29.91
2023-03-06T07:49:51.374Z,29.97
2023-03-06T07:50:51.892Z,30.03
2023-03-06T07:51:51.025Z,30.07
2023-03-06T07:52:50.997Z,30.13
2023-03-06T07:53:51.257Z,30.16
2023-03-06T07:54:51.373Z,30.22
2023-03-06T07:55:50.991Z,30.21
2023-03-06T07:56:50.962Z,30.24
2023-03-06T07:57:51.373Z,30.28
2023-03-06T07:58:50.941Z,30.36
2023-03-06T07:59:50.940Z,30.34
2023-03-06T08:00:51.399Z,30.38
2023-03-06T08:01:50.920Z,30.35
2023-03-06T08:02:51.404Z,30.30
2023-03-06T08:03:50.961Z,30.31
2023-03-06T08:04:50.895Z,30.48
2023-03-06T08:06:50.898Z,30.57
2023-03-06T08:07:50.878Z,30.59
2023-03-06T08:08:50.866Z,30.62
2023-03-06T08:09:50.874Z,30.65
2023-03-06T08:10:50.875Z,30.64
2023-03-06T08:11:50.864Z,30.64
2023-03-06T08:12:50.916Z,30.62
2023-03-06T08:13:51.325Z,30.58
2023-03-06T08:14:50.833Z,30.68
2023-03-06T08:15:50.828Z,30.70
2023-03-06T08:16:51.088Z,30.76
2023-03-06T08:17:50.908Z,30.79
2023-03-06T08:18:50.782Z,30.78
2023-03-06T08:19:51.642Z,30.78
2023-03-06T08:20:51.689Z,30.84
2023-03-06T08:21:50.773Z,30.83
2023-03-06T08:22:50.908Z,30.85
2023-03-06T08:23:50.787Z,30.88
2023-03-06T08:24:50.772Z,30.82
2023-03-06T08:25:50.768Z,30.81
2023-03-06T08:26:50.759Z,30.74
2023-03-06T08:27:51.012Z,30.69
2023-03-06T08:28:50.711Z,30.69
2023-03-06T08:29:50.691Z,30.69
2023-03-06T08:30:50.682Z,30.72
2023-03-06T08:31:50.796Z,30.75
2023-03-06T08:32:50.916Z,30.77
2023-03-06T08:33:50.648Z,30.71
2023-03-06T08:34:50.655Z,30.85
2023-03-06T08:35:50.685Z,30.93
2023-03-06T08:36:50.632Z,30.93
2023-03-06T08:37:50.885Z,30.62
2023-03-06T08:38:50.607Z,30.26
2023-03-06T08:39:50.576Z,29.59
2023-03-06T08:40:50.887Z,29.08
2023-03-06T08:41:50.554Z,28.76
2023-03-06T08:42:50.565Z,28.63
2023-03-06T08:43:50.889Z,28.66
2023-03-06T08:44:50.542Z,28.48
2023-03-06T08:45:50.557Z,27.33
2023-03-06T08:46:50.889Z,26.71
2023-03-06T08:47:50.496Z,26.88
2023-03-06T08:48:50.501Z,26.88
2023-03-06T08:49:50.889Z,26.07
2023-03-06T08:50:50.481Z,25.66
2023-03-06T08:51:50.470Z,25.80
2023-03-06T08:52:50.452Z,25.68
2023-03-06T08:53:50.894Z,25.51
2023-03-06T08:55:50.425Z,25.32
2023-03-06T08:56:51.441Z,25.49
2023-03-06T08:57:50.415Z,25.46
2023-03-06T08:58:50.938Z,25.89
2023-03-06T08:59:50.416Z,26.32
2023-03-06T09:00:50.495Z,26.33
2023-03-06T09:01:51.383Z,26.15
2023-03-06T09:02:50.364Z,26.45
2023-03-06T09:03:50.398Z,26.89
2023-03-06T09:04:50.345Z,27.29
2023-03-06T09:05:50.329Z,28.05
2023-03-06T09:06:50.892Z,28.31
2023-03-06T09:07:50.312Z,28.37
2023-03-06T09:21:50.185Z,31.08
2023-03-06T09:35:50.124Z,32.89
2023-03-06T09:41:50.415Z,32.76
2023-03-06T09:45:50.339Z,33.44
2023-03-06T09:51:49.915Z,33.75
2023-03-06T09:58:49.900Z,33.70
2023-03-06T10:01:49.971Z,33.47
2023-03-06T10:05:49.810Z,33.82
2023-03-06T10:13:49.763Z,34.09
2023-03-06T10:14:49.746Z,34.30
2023-03-06T10:25:49.962Z,34.34
2023-03-06T10:35:49.701Z,34.09
2023-03-06T10:36:49.964Z,34.15
2023-03-06T10:47:49.462Z,35.03
2023-03-06T10:51:49.406Z,34.84
2023-03-06T10:52:49.433Z,35.23
2023-03-06T10:55:49.360Z,35.07
2023-03-06T10:56:49.366Z,35.34
2023-03-06T10:57:50.430Z,35.38
2023-03-06T10:59:49.441Z,35.43
2023-03-06T11:01:49.349Z,35.26
2023-03-06T11:02:49.495Z,35.33
2023-03-06T11:05:49.273Z,35.39
2023-03-06T11:06:49.469Z,35.45
2023-03-06T11:08:49.240Z,35.46
2023-03-06T11:09:49.242Z,35.28
2023-03-06T11:10:49.439Z,35.30
2023-03-06T11:12:56.633Z,35.30
2023-03-06T11:14:49.221Z,34.92
2023-03-06T11:15:49.468Z,35.25
2023-03-06T11:17:49.165Z,35.19
2023-03-06T11:18:49.476Z,35.23
2023-03-06T11:20:52.634Z,35.17
2023-03-06T11:21:49.135Z,35.04
2023-03-06T11:22:49.361Z,35.06
2023-03-06T11:25:49.098Z,36.04
2023-03-06T11:28:49.512Z,35.24
2023-03-06T11:32:49.972Z,35.51
2023-03-06T11:35:49.032Z,35.14
2023-03-06T11:36:48.997Z,34.82
2023-03-06T11:37:49.452Z,34.87
2023-03-06T11:38:48.995Z,34.98
2023-03-06T11:39:49.655Z,34.77
2023-03-06T11:40:48.998Z,34.76
2023-03-06T11:41:48.961Z,34.62
2023-03-06T11:42:49.452Z,34.53
2023-03-06T11:43:48.950Z,34.54
2023-03-06T11:44:48.954Z,34.65
2023-03-06T11:45:48.933Z,34.65
2023-03-06T11:46:49.011Z,34.56
2023-03-06T11:48:49.470Z,34.34
2023-03-06T11:49:49.306Z,34.28
2023-03-06T11:50:48.923Z,34.59
2023-03-06T11:51:48.962Z,34.42
2023-03-06T11:52:48.949Z,34.46
2023-03-06T11:54:48.834Z,34.95
2023-03-06T11:55:48.902Z,34.99
2023-03-06T11:56:48.962Z,34.59
2023-03-06T11:57:48.813Z,34.67
2023-03-06T11:58:48.958Z,34.67
2023-03-06T11:59:48.799Z,34.77
2023-03-06T12:00:48.796Z,34.68
2023-03-06T12:01:49.821Z,34.59
2023-03-06T12:02:48.768Z,34.72
2023-03-06T12:03:48.960Z,34.67
2023-03-06T12:04:48.769Z,34.65
2023-03-06T12:05:48.760Z,34.78
2023-03-06T12:06:48.767Z,34.79
2023-03-06T12:07:48.722Z,34.80
2023-03-06T12:08:48.960Z,34.72
2023-03-06T12:09:48.962Z,34.92
2023-03-06T12:10:51.736Z,34.79
2023-03-06T12:11:49.520Z,34.82
2023-03-06T12:12:48.709Z,34.95
2023-03-06T12:13:48.961Z,35.07
2023-03-06T12:14:48.874Z,34.98
2023-03-06T12:15:48.654Z,34.65
2023-03-06T12:16:48.704Z,34.55
2023-03-06T12:17:48.641Z,34.57
2023-03-06T12:18:48.967Z,34.45
2023-03-06T12:19:48.968Z,34.22
2023-03-06T12:20:48.966Z,34.24
2023-03-06T12:21:48.613Z,34.03
2023-03-06T12:22:57.875Z,33.98
2023-03-06T12:23:50.036Z,33.83
2023-03-06T12:25:48.596Z,33.55
2023-03-06T12:26:48.564Z,33.50
2023-03-06T12:27:48.561Z,33.59
2023-03-06T12:28:48.544Z,33.52
2023-03-06T12:29:48.980Z,33.70
2023-03-06T12:30:48.537Z,33.74
2023-03-06T12:31:48.579Z,33.75
2023-03-06T12:32:48.575Z,33.74
2023-03-06T12:33:48.503Z,33.85
2023-03-06T12:34:48.978Z,33.67
2023-03-06T12:35:48.567Z,33.73
2023-03-06T12:36:48.478Z,33.80
2023-03-06T12:37:48.978Z,33.80
2023-03-06T12:38:48.533Z,33.89
2023-03-06T12:39:48.463Z,33.93
2023-03-06T12:40:48.941Z,33.78
2023-03-06T12:41:48.435Z,33.87
2023-03-06T12:42:48.421Z,33.61
2023-03-06T12:43:48.411Z,33.72
2023-03-06T12:44:48.600Z,33.81
2023-03-06T12:45:48.460Z,33.44
2023-03-06T12:46:48.389Z,32.69
2023-03-06T12:47:48.393Z,32.33
2023-03-06T12:48:48.407Z,32.15
2023-03-06T12:49:48.603Z,32.13
2023-03-06T12:50:48.476Z,32.28
2023-03-06T12:51:48.353Z,32.42
2023-03-06T12:52:48.371Z,32.60
2023-03-06T12:53:48.333Z,32.74
2023-03-06T12:54:48.354Z,32.55
2023-03-06T12:55:48.486Z,32.65
2023-03-06T12:56:48.305Z,32.74
2023-03-06T12:57:48.299Z,32.67
2023-03-06T12:58:48.489Z,32.65
2023-03-06T12:59:48.286Z,32.75
2023-03-06T13:00:52.590Z,32.86
2023-03-06T13:01:48.309Z,33.00
2023-03-06T13:02:48.530Z,32.99
2023-03-06T13:03:48.246Z,32.88
2023-03-06T13:04:48.239Z,32.85
2023-03-06T13:05:48.247Z,32.93
2023-03-06T13:06:50.944Z,33.02
2023-03-06T13:07:48.499Z,33.04
2023-03-06T13:08:48.448Z,33.10
2023-03-06T13:10:48.540Z,33.09
2023-03-06T13:11:48.179Z,33.06
2023-03-06T13:12:48.486Z,33.14
2023-03-06T13:13:48.163Z,32.89
2023-03-06T13:14:54.058Z,32.85
2023-03-06T13:15:48.149Z,32.95
2023-03-06T13:16:48.189Z,33.00
2023-03-06T13:17:48.128Z,33.04
2023-03-06T13:18:48.496Z,33.02
2023-03-06T13:19:48.114Z,33.01
2023-03-06T13:20:48.491Z,33.08
2023-03-06T13:21:48.553Z,33.10
2023-03-06T13:22:48.092Z,33.10
2023-03-06T13:23:48.086Z,33.31
2023-03-06T13:24:49.476Z,33.29
2023-03-06T13:25:48.109Z,33.23
2023-03-06T13:26:48.170Z,33.31
2023-03-06T13:27:48.040Z,33.27
2023-03-06T13:28:48.039Z,33.16
2023-03-06T13:29:48.493Z,33.38
2023-03-06T13:30:48.040Z,33.69
2023-03-06T13:31:48.066Z,33.83
2023-03-06T13:32:48.493Z,33.90
2023-03-06T13:33:48.006Z,33.90
2023-03-06T13:34:47.985Z,33.70
2023-03-06T13:35:48.047Z,33.69
2023-03-06T13:36:47.973Z,33.83
2023-03-06T13:37:48.000Z,33.97
2023-03-06T13:38:47.999Z,33.91
2023-03-06T13:39:47.938Z,33.85
2023-03-06T13:40:47.930Z,33.91
2023-03-06T13:41:47.929Z,33.71
2023-03-06T13:42:47.935Z,33.74
2023-03-06T13:43:47.920Z,33.76
2023-03-06T13:44:47.927Z,34.02
2023-03-06T13:45:47.942Z,33.78
2023-03-06T13:46:47.880Z,33.96
2023-03-06T13:48:25.042Z,33.76
2023-03-06T13:48:47.916Z,33.80
2023-03-06T13:49:47.854Z,34.20
2023-03-06T13:50:47.858Z,33.72
2023-03-06T13:51:47.847Z,33.17
2023-03-06T13:52:47.829Z,33.18
2023-03-06T13:53:47.875Z,33.46
2023-03-06T13:54:47.813Z,33.62
2023-03-06T13:55:47.998Z,33.74
2023-03-06T13:56:47.808Z,33.17
2023-03-06T13:57:47.793Z,32.47
2023-03-06T13:58:48.034Z,30.48
2023-03-06T13:59:50.511Z,31.32
2023-03-06T14:00:47.758Z,31.90
2023-03-06T14:01:47.803Z,32.22
2023-03-06T14:02:47.750Z,32.29
2023-03-06T14:03:48.007Z,32.36
2023-03-06T14:04:47.732Z,32.50
2023-03-06T14:06:47.709Z,32.62
2023-03-06T14:07:47.698Z,32.86
2023-03-06T14:08:48.446Z,33.05
2023-03-06T14:09:48.013Z,33.21
2023-03-06T14:10:48.315Z,33.30
2023-03-06T14:11:48.106Z,33.33
2023-03-06T14:12:47.954Z,33.26
2023-03-06T14:14:48.417Z,33.33
2023-03-06T14:15:48.147Z,33.43
2023-03-06T14:16:50.417Z,33.54
2023-03-06T14:17:47.622Z,33.53
2023-03-06T14:18:47.602Z,33.65
2023-03-06T14:19:48.000Z,33.56
2023-03-06T14:20:47.590Z,33.69
2023-03-06T14:21:47.605Z,33.70
2023-03-06T14:23:47.565Z,33.84
2023-03-06T14:24:47.558Z,33.83
2023-03-06T14:26:47.536Z,33.81
2023-03-06T14:27:47.533Z,33.81
2023-03-06T14:29:48.009Z,33.88
2023-03-06T14:30:47.526Z,33.96
2023-03-06T14:31:47.486Z,33.92
2023-03-06T14:32:47.481Z,33.86
2023-03-06T14:33:47.465Z,33.76
2023-03-06T14:34:47.510Z,32.52
2023-03-06T14:35:47.489Z,29.87
2023-03-06T14:36:47.515Z,28.30
2023-03-06T14:37:47.440Z,28.79
2023-03-06T14:38:47.473Z,28.21
2023-03-06T14:39:47.513Z,29.16
2023-03-06T14:40:47.413Z,28.05
2023-03-06T14:41:47.420Z,27.20
2023-03-06T14:42:47.401Z,26.22
2023-03-06T14:43:47.388Z,26.19
2023-03-06T14:44:47.391Z,26.28
2023-03-06T14:46:47.465Z,25.86
2023-03-06T14:47:48.522Z,26.38
2023-03-06T14:48:47.339Z,26.47
2023-03-06T14:49:46.354Z,27.05
2023-03-06T14:50:47.330Z,27.15
2023-03-06T14:52:47.332Z,28.19
2023-03-06T14:53:47.304Z,27.20
2023-03-06T14:54:47.287Z,27.94
2023-03-06T14:55:47.296Z,27.58
2023-03-06T14:56:47.280Z,27.87
2023-03-06T14:57:47.264Z,28.08
2023-03-06T14:58:47.257Z,28.58
2023-03-06T14:59:47.313Z,27.89
2023-03-06T15:00:47.266Z,27.40
2023-03-06T15:01:47.254Z,27.93
2023-03-06T15:02:47.266Z,27.82
2023-03-06T15:03:47.213Z,27.56
2023-03-06T15:04:47.200Z,27.35
2023-03-06T15:05:47.199Z,27.04
2023-03-06T15:06:47.222Z,27.41
2023-03-06T15:07:47.172Z,27.21
2023-03-06T15:08:47.164Z,27.78
2023-03-06T15:09:47.156Z,26.85
2023-03-06T15:10:47.179Z,28.42
2023-03-06T15:11:47.561Z,27.11
2023-03-06T15:12:47.148Z,27.40
2023-03-06T15:13:47.131Z,27.38
2023-03-06T15:14:47.137Z,27.34
2023-03-06T15:15:47.114Z,27.08
2023-03-06T15:16:47.092Z,27.48
2023-03-06T15:17:47.098Z,27.91
2023-03-06T15:24:47.031Z,27.19
2023-03-06T15:27:47.030Z,27.19
2023-03-06T15:29:47.029Z,26.72
2023-03-06T15:32:46.945Z,26.17
2023-03-06T16:45:46.329Z,34.60
2023-03-06T16:48:46.281Z,34.57
2023-03-06T17:23:45.958Z,34.22
2023-03-06T18:42:45.229Z,33.52
2023-03-06T18:59:45.072Z,33.41
2023-03-06T19:41:44.707Z,33.21
2023-03-06T19:42:44.690Z,33.22
2023-03-06T19:43:45.226Z,33.20
2023-03-06T19:44:44.681Z,33.19
2023-03-06T19:45:44.749Z,33.19
2023-03-06T19:46:44.664Z,33.18
2023-03-06T19:47:44.669Z,33.19
2023-03-06T19:48:44.648Z,33.17
2023-03-06T19:49:44.632Z,33.18
2023-03-06T19:50:44.644Z,33.18
2023-03-06T19:51:44.616Z,33.17
2023-03-06T19:52:44.604Z,33.15
2023-03-06T19:53:44.608Z,33.13
2023-03-06T19:54:44.586Z,33.16
2023-03-06T19:55:44.577Z,33.15
2023-03-06T19:56:44.570Z,33.15
2023-03-06T19:57:44.561Z,33.18
2023-03-06T19:58:44.576Z,33.14
2023-03-06T19:59:44.549Z,33.12
2023-03-06T20:00:44.539Z,33.15
2023-03-06T20:01:44.626Z,33.11
2023-03-06T20:02:44.545Z,33.10
2023-03-06T20:03:44.548Z,33.11
2023-03-06T20:04:44.549Z,33.12
2023-03-06T20:05:44.527Z,33.12
2023-03-06T20:06:44.534Z,33.12
2023-03-06T20:07:44.473Z,33.10
2023-03-06T20:08:44.468Z,33.11